createdAt,value
2019-04-05T00:00:23.844Z,3.10
2019-04-05T00:02:53.312Z,3.10
2019-04-05T00:05:22.799Z,3.10
2019-04-05T00:07:52.003Z,3.10
2019-04-05T00:10:21.525Z,3.10
2019-04-05T00:12:51.561Z,3.10
2019-04-05T00:15:21.039Z,3.20
2019-04-05T00:17:50.156Z,3.20
2019-04-05T00:20:19.634Z,3.20
2019-04-05T00:22:49.052Z,3.20
2019-04-05T00:25:18.316Z,3.20
2019-04-05T00:27:48.044Z,3.10
2019-04-05T00:30:17.780Z,3.10
2019-04-05T00:32:46.912Z,3.10
2019-04-05T00:35:16.471Z,3.10
2019-04-05T00:37:45.619Z,3.10
2019-04-05T00:40:15.075Z,3.10
2019-04-05T00:42:44.560Z,3.10
2019-04-05T00:45:13.708Z,3.00
2019-04-05T00:47:42.831Z,3.00
2019-04-05T00:50:12.879Z,3.00
2019-04-05T00:52:42.012Z,3.00
2019-04-05T00:55:11.715Z,3.00
2019-04-05T00:57:40.956Z,2.90
2019-04-05T01:00:10.812Z,2.90
2019-04-05T01:02:40.235Z,2.90
2019-04-05T01:05:10.006Z,2.90
2019-04-05T01:07:39.400Z,2.90
2019-04-05T01:10:09.272Z,2.80
2019-04-05T01:12:40.643Z,2.80
2019-04-05T01:15:11.362Z,2.80
2019-04-05T01:17:41.663Z,2.80
2019-04-05T01:20:11.791Z,2.70
2019-04-05T01:22:42.633Z,2.70
2019-04-05T01:25:12.004Z,2.70
2019-04-05T01:27:42.493Z,2.70
2019-04-05T01:30:14.190Z,2.70
2019-04-05T01:32:43.315Z,2.70
2019-04-05T01:35:12.931Z,2.70
2019-04-05T01:37:42.726Z,2.70
2019-04-05T01:40:12.188Z,2.70
2019-04-05T01:42:42.955Z,2.70
2019-04-05T01:45:12.507Z,2.70
2019-04-05T01:47:42.070Z,2.80
2019-04-05T01:50:12.003Z,2.80
2019-04-05T01:52:42.788Z,2.80
2019-04-05T01:55:12.271Z,2.90
2019-04-05T01:57:42.117Z,2.80
2019-04-05T02:00:12.211Z,2.90
2019-04-05T02:02:41.742Z,2.90
2019-04-05T02:05:11.436Z,2.90
2019-04-05T02:07:40.927Z,2.90
2019-04-05T02:10:11.761Z,2.90
2019-04-05T02:12:41.776Z,2.90
2019-04-05T02:15:12.745Z,2.90
2019-04-05T02:17:42.328Z,2.90
2019-04-05T02:20:12.456Z,2.90
2019-04-05T02:22:41.947Z,2.90
2019-04-05T02:25:11.092Z,2.90
2019-04-05T02:27:40.859Z,3.00
2019-04-05T02:30:10.301Z,3.00
2019-04-05T02:32:39.472Z,3.00
2019-04-05T02:35:09.598Z,3.00
2019-04-05T02:37:38.852Z,3.00
2019-04-05T02:40:11.653Z,3.00
2019-04-05T02:42:42.299Z,3.00
2019-04-05T02:45:13.362Z,3.00
2019-04-05T02:47:46.328Z,3.00
2019-04-05T02:50:17.871Z,2.90
2019-04-05T02:52:50.580Z,2.90
2019-04-05T02:55:20.596Z,3.00
2019-04-05T02:57:49.953Z,3.00
2019-04-05T03:00:19.159Z,3.00
2019-04-05T03:02:49.719Z,3.00
2019-04-05T03:05:20.329Z,3.00
2019-04-05T03:07:50.590Z,3.00
2019-04-05T03:10:56.019Z,3.00
2019-04-05T03:13:27.088Z,3.00
2019-04-05T03:15:59.555Z,3.00
2019-04-05T03:18:30.987Z,3.00
2019-04-05T03:21:03.819Z,3.10
2019-04-05T03:23:36.159Z,3.00
2019-04-05T03:26:09.752Z,3.00
2019-04-05T03:28:41.786Z,3.00
2019-04-05T03:31:11.902Z,3.00
2019-04-05T03:33:41.873Z,3.00
2019-04-05T03:36:11.083Z,3.00
2019-04-05T03:38:41.233Z,3.00
2019-04-05T03:41:11.295Z,3.00
2019-04-05T03:43:40.732Z,3.00
2019-04-05T03:46:11.088Z,3.00
2019-04-05T03:48:40.437Z,3.10
2019-04-05T03:51:09.971Z,3.10
2019-04-05T03:53:39.347Z,3.10
2019-04-05T03:56:08.955Z,3.10
2019-04-05T03:58:38.463Z,3.10
2019-04-05T04:01:08.038Z,3.10
2019-04-05T04:03:37.583Z,3.10
2019-04-05T04:06:06.800Z,3.10
2019-04-05T04:08:36.675Z,3.10
2019-04-05T04:11:07.108Z,3.20
2019-04-05T04:13:37.135Z,3.20
2019-04-05T04:16:06.919Z,3.20
2019-04-05T04:18:36.489Z,3.20
2019-04-05T04:21:16.076Z,3.20
2019-04-05T04:23:45.239Z,3.20
2019-04-05T04:26:14.521Z,3.20
2019-04-05T04:28:44.122Z,3.20
2019-04-05T04:31:15.053Z,3.20
2019-04-05T04:33:48.482Z,3.10
2019-04-05T04:36:18.348Z,3.20
2019-04-05T04:38:47.519Z,3.20
2019-04-05T04:41:17.106Z,3.20
2019-04-05T04:43:46.894Z,3.20
2019-04-05T04:46:16.469Z,3.20
2019-04-05T04:48:46.528Z,3.20
2019-04-05T04:51:16.195Z,3.20
2019-04-05T04:53:45.753Z,3.20
2019-04-05T04:56:15.308Z,3.20
2019-04-05T04:58:46.328Z,3.30
2019-04-05T05:01:15.668Z,3.30
2019-04-05T05:03:45.738Z,3.30
2019-04-05T05:06:15.612Z,3.30
2019-04-05T05:08:44.931Z,3.30
2019-04-05T05:11:15.277Z,3.30
2019-04-05T05:13:45.704Z,3.30
2019-04-05T05:16:15.252Z,3.30
2019-04-05T05:18:44.783Z,3.30
2019-04-05T05:21:14.295Z,3.30
2019-04-05T05:23:44.014Z,3.20
2019-04-05T05:26:13.139Z,3.30
2019-04-05T05:28:43.518Z,3.30
2019-04-05T05:31:13.995Z,3.30
2019-04-05T05:33:43.766Z,3.30
2019-04-05T05:36:13.372Z,3.40
2019-04-05T05:38:43.195Z,3.40
2019-04-05T05:41:13.423Z,3.40
2019-04-05T05:43:43.430Z,3.40
2019-04-05T05:46:12.846Z,3.50
2019-04-05T05:48:42.951Z,3.50
2019-04-05T05:51:12.163Z,3.50
2019-04-05T05:53:41.313Z,3.50
2019-04-05T05:56:11.705Z,3.50
2019-04-05T05:58:41.294Z,3.50
2019-04-05T06:01:10.770Z,3.50
2019-04-05T06:03:40.399Z,3.50
2019-04-05T06:06:10.184Z,3.50
2019-04-05T06:08:39.339Z,3.50
2019-04-05T06:11:08.822Z,3.50
2019-04-05T06:13:38.247Z,3.50
2019-04-05T06:16:07.404Z,3.60
2019-04-05T06:18:37.538Z,3.60
2019-04-05T06:21:06.675Z,3.60
2019-04-05T06:23:35.837Z,3.70
2019-04-05T06:26:05.772Z,3.70
2019-04-05T06:28:35.386Z,3.80
2019-04-05T06:31:04.580Z,3.90
2019-04-05T06:33:35.798Z,4.00
2019-04-05T06:36:05.022Z,4.10
2019-04-05T06:38:34.619Z,4.10
2019-04-05T06:41:04.095Z,4.10
2019-04-05T06:43:33.281Z,4.00
2019-04-05T06:46:02.634Z,4.00
2019-04-05T06:48:32.253Z,4.00
2019-04-05T06:51:01.754Z,4.00
2019-04-05T06:53:31.567Z,4.00
2019-04-05T06:56:01.480Z,3.90
2019-04-05T06:58:30.661Z,3.90
2019-04-05T07:01:00.652Z,3.90
2019-04-05T07:03:29.888Z,3.90
2019-04-05T07:05:59.933Z,3.90
2019-04-05T07:08:29.152Z,3.80
2019-04-05T07:10:58.723Z,3.90
2019-04-05T07:13:27.907Z,3.80
2019-04-05T07:15:57.698Z,3.80
2019-04-05T07:18:35.442Z,3.90
2019-04-05T07:20:58.172Z,3.90
2019-04-05T07:23:27.347Z,3.90
2019-04-05T07:25:56.545Z,3.90
2019-04-05T07:28:26.089Z,3.90
2019-04-05T07:30:55.571Z,3.90
2019-04-05T07:33:25.389Z,3.90
2019-04-05T07:35:54.875Z,4.00
2019-04-05T07:38:24.994Z,3.90
2019-04-05T07:40:54.804Z,4.00
2019-04-05T07:43:23.956Z,4.00
2019-04-05T07:45:53.421Z,4.10
2019-04-05T07:48:22.958Z,4.10
2019-04-05T07:50:52.164Z,4.10
2019-04-05T07:53:21.727Z,4.20
2019-04-05T07:55:51.567Z,4.20
2019-04-05T07:58:21.059Z,4.20
2019-04-05T08:00:53.303Z,4.20
2019-04-05T08:03:23.776Z,4.20
2019-04-05T08:05:53.626Z,4.30
2019-04-05T08:08:47.472Z,4.30
2019-04-05T08:11:17.809Z,4.30
2019-04-05T08:13:50.294Z,4.30
2019-04-05T08:16:20.296Z,4.40
2019-04-05T08:18:57.518Z,4.40
2019-04-05T08:21:21.424Z,4.40
2019-04-05T08:23:51.268Z,4.40
2019-04-05T08:26:20.483Z,4.40
2019-04-05T08:28:49.643Z,4.40
2019-04-05T08:31:19.150Z,4.40
2019-04-05T08:33:48.691Z,4.40
2019-04-05T08:36:18.508Z,4.50
2019-04-05T08:38:48.309Z,4.50
2019-04-05T08:41:17.883Z,4.50
2019-04-05T08:43:47.422Z,4.60
2019-04-05T08:46:17.184Z,4.60
2019-04-05T08:48:46.337Z,4.70
2019-04-05T08:51:16.015Z,4.70
2019-04-05T08:53:45.868Z,4.70
2019-04-05T08:56:15.356Z,4.70
2019-04-05T08:58:44.571Z,4.70
2019-04-05T09:01:13.728Z,4.70
2019-04-05T09:03:42.868Z,4.70
2019-04-05T09:06:12.375Z,4.70
2019-04-05T09:08:42.291Z,4.70
2019-04-05T09:11:11.523Z,4.80
2019-04-05T09:13:40.955Z,4.80
2019-04-05T09:16:11.851Z,4.90
2019-04-05T09:18:41.744Z,5.00
2019-04-05T09:21:10.979Z,5.10
2019-04-05T09:23:40.164Z,5.20
2019-04-05T09:26:09.396Z,5.30
2019-04-05T09:28:38.852Z,5.40
2019-04-05T09:31:08.772Z,5.50
2019-04-05T09:33:38.344Z,5.50
2019-04-05T09:36:07.885Z,5.70
2019-04-05T09:38:37.765Z,5.70
2019-04-05T09:41:07.722Z,5.80
2019-04-05T09:43:37.943Z,5.80
2019-04-05T09:46:07.536Z,5.80
2019-04-05T09:48:36.667Z,5.90
2019-04-05T09:51:07.139Z,6.00
2019-04-05T09:53:36.770Z,6.10
2019-04-05T09:56:06.117Z,6.20
2019-04-05T09:58:35.588Z,6.40
2019-04-05T10:01:05.352Z,6.60
2019-04-05T10:03:34.803Z,6.60
2019-04-05T10:06:04.688Z,6.60
2019-04-05T10:08:33.837Z,6.60
2019-04-05T10:11:03.595Z,6.60
2019-04-05T10:13:32.742Z,6.70
2019-04-05T10:16:02.420Z,6.80
2019-04-05T10:18:31.644Z,6.90
2019-04-05T10:21:01.467Z,7.10
2019-04-05T10:23:31.235Z,7.20
2019-04-05T10:26:00.383Z,7.40
2019-04-05T10:28:30.515Z,7.60
2019-04-05T10:31:00.093Z,7.80
2019-04-05T10:33:29.284Z,8.10
2019-04-05T10:35:58.915Z,8.30
2019-04-05T10:38:28.382Z,8.30
2019-04-05T10:40:57.543Z,8.10
2019-04-05T10:43:27.281Z,8.10
2019-04-05T10:45:56.922Z,8.20
2019-04-05T10:48:26.236Z,8.10
2019-04-05T10:50:56.152Z,7.90
2019-04-05T10:53:25.754Z,7.70
2019-04-05T10:55:55.049Z,7.60
2019-04-05T10:58:25.100Z,7.50
2019-04-05T11:00:54.355Z,7.50
2019-04-05T11:03:23.889Z,7.50
2019-04-05T11:05:53.496Z,7.40
2019-04-05T11:08:22.701Z,7.40
2019-04-05T11:10:52.007Z,7.50
2019-04-05T11:13:21.952Z,7.70
2019-04-05T11:15:51.119Z,7.70
2019-04-05T11:18:20.239Z,7.70
2019-04-05T11:20:50.020Z,7.70
2019-04-05T11:23:21.445Z,7.80
2019-04-05T11:25:51.284Z,7.80
2019-04-05T11:28:20.424Z,7.90
2019-04-05T11:30:49.982Z,7.90
2019-04-05T11:33:20.127Z,7.90
2019-04-05T11:35:49.706Z,7.90
2019-04-05T11:38:19.230Z,7.90
2019-04-05T11:40:48.776Z,7.80
2019-04-05T11:43:19.308Z,7.70
2019-04-05T11:45:50.820Z,7.70
2019-04-05T11:48:20.956Z,7.60
2019-04-05T11:50:50.200Z,7.50
2019-04-05T11:53:22.004Z,7.50
2019-04-05T11:55:50.683Z,7.50
2019-04-05T11:58:20.163Z,7.60
2019-04-05T12:00:54.014Z,7.70
2019-04-05T12:03:23.599Z,7.70
2019-04-05T12:05:52.797Z,7.80
2019-04-05T12:08:22.283Z,7.80
2019-04-05T12:10:51.783Z,7.80
2019-04-05T12:13:21.935Z,7.70
2019-04-05T12:15:51.443Z,7.60
2019-04-05T12:18:20.625Z,7.60
2019-04-05T12:20:59.632Z,7.60
2019-04-05T12:23:21.610Z,7.60
2019-04-05T12:25:50.746Z,7.50
2019-04-05T12:28:20.403Z,7.50
2019-04-05T12:30:50.399Z,7.50
2019-04-05T12:33:20.467Z,7.60
2019-04-05T12:35:52.951Z,7.60
2019-04-05T12:38:33.739Z,7.60
2019-04-05T12:41:04.667Z,7.60
2019-04-05T12:43:34.551Z,7.50
2019-04-05T12:46:04.671Z,7.50
2019-04-05T12:48:33.822Z,7.50
2019-04-05T12:51:05.498Z,7.50
2019-04-05T12:53:34.203Z,7.50
2019-04-05T12:56:05.645Z,7.40
2019-04-05T12:58:35.267Z,7.40
2019-04-05T13:01:04.755Z,7.40
2019-04-05T13:03:33.992Z,7.50
2019-04-05T13:06:03.548Z,7.50
2019-04-05T13:08:33.409Z,7.50
2019-04-05T13:11:02.742Z,7.50
2019-04-05T13:13:32.321Z,7.50
2019-04-05T13:16:01.904Z,7.50
2019-04-05T13:18:31.832Z,7.50
2019-04-05T13:21:13.978Z,7.40
2019-04-05T13:23:33.800Z,7.40
2019-04-05T13:26:03.739Z,7.40
2019-04-05T13:28:32.971Z,7.50
2019-04-05T13:31:02.108Z,7.50
2019-04-05T13:33:31.266Z,7.50
2019-04-05T13:36:00.852Z,7.60
2019-04-05T13:38:30.752Z,7.50
2019-04-05T13:41:01.513Z,7.50
2019-04-05T13:43:31.865Z,7.50
2019-04-05T13:46:02.279Z,7.60
2019-04-05T13:48:32.060Z,7.60
2019-04-05T13:51:01.879Z,7.60
2019-04-05T13:53:31.372Z,7.60
2019-04-05T13:56:00.995Z,7.60
2019-04-05T13:58:30.327Z,7.60
2019-04-05T14:00:59.874Z,7.70
2019-04-05T14:03:29.707Z,7.60
2019-04-05T14:05:58.939Z,7.60
2019-04-05T14:08:28.424Z,7.60
2019-04-05T14:10:57.894Z,7.60
2019-04-05T14:13:27.055Z,7.60
2019-04-05T14:15:56.505Z,7.60
2019-04-05T14:18:26.140Z,7.50
2019-04-05T14:20:55.270Z,7.50
2019-04-05T14:23:25.045Z,7.50
2019-04-05T14:25:54.651Z,7.50
2019-04-05T14:28:24.546Z,7.60
2019-04-05T14:30:54.087Z,7.60
2019-04-05T14:33:24.784Z,7.60
2019-04-05T14:35:55.410Z,7.60
2019-04-05T14:38:25.131Z,7.60
2019-04-05T14:40:54.359Z,7.70
2019-04-05T14:43:23.757Z,7.70
2019-04-05T14:45:53.705Z,7.70
2019-04-05T14:48:27.347Z,7.80
2019-04-05T14:50:57.493Z,7.80
2019-04-05T14:53:26.675Z,7.70
2019-04-05T14:55:59.082Z,7.70
2019-04-05T14:58:26.767Z,7.70
2019-04-05T15:00:56.631Z,7.80
2019-04-05T15:03:25.843Z,7.80
2019-04-05T15:05:56.080Z,7.80
2019-04-05T15:08:25.305Z,7.80
2019-04-05T15:10:56.896Z,7.80
2019-04-05T15:13:25.692Z,7.80
2019-04-05T15:15:55.956Z,7.80
2019-04-05T15:18:25.725Z,7.70
2019-04-05T15:20:55.340Z,7.70
2019-04-05T15:23:25.091Z,7.70
2019-04-05T15:25:55.155Z,7.60
2019-04-05T15:28:25.289Z,7.50
2019-04-05T15:30:56.138Z,7.50
2019-04-05T15:33:27.594Z,7.50
2019-04-05T15:35:59.072Z,7.50
2019-04-05T15:38:31.364Z,7.50
2019-04-05T15:40:59.228Z,7.50
2019-04-05T15:43:29.231Z,7.50
2019-04-05T15:45:58.463Z,7.40
2019-04-05T15:48:27.907Z,7.40
2019-04-05T15:50:59.325Z,7.40
2019-04-05T15:53:31.895Z,7.30
2019-04-05T15:56:03.876Z,7.30
2019-04-05T15:58:34.092Z,7.40
2019-04-05T16:01:04.431Z,7.40
2019-04-05T16:03:36.868Z,7.50
2019-04-05T16:06:05.743Z,7.50
2019-04-05T16:08:34.960Z,7.40
2019-04-05T16:11:04.318Z,7.40
2019-04-05T16:13:33.528Z,7.40
2019-04-05T16:16:02.765Z,7.40
2019-04-05T16:18:31.973Z,7.40
2019-04-05T16:21:02.060Z,7.40
2019-04-05T16:23:31.263Z,7.40
2019-04-05T16:26:00.777Z,7.30
2019-04-05T16:28:30.009Z,7.30
2019-04-05T16:30:59.463Z,7.30
2019-04-05T16:33:29.347Z,7.20
2019-04-05T16:35:58.863Z,7.20
2019-04-05T16:38:28.372Z,7.20
2019-04-05T16:40:57.904Z,7.20
2019-04-05T16:43:27.574Z,7.20
2019-04-05T16:45:57.120Z,7.20
2019-04-05T16:48:26.917Z,7.20
2019-04-05T16:50:56.455Z,7.20
2019-04-05T16:53:25.911Z,7.10
2019-04-05T16:55:55.063Z,7.10
2019-04-05T16:58:24.628Z,7.10
2019-04-05T17:00:54.165Z,7.10
2019-04-05T17:03:23.671Z,7.10
2019-04-05T17:05:52.900Z,7.00
2019-04-05T17:08:22.375Z,7.00
2019-04-05T17:10:51.547Z,7.00
2019-04-05T17:13:21.056Z,7.00
2019-04-05T17:15:50.217Z,7.00
2019-04-05T17:18:19.346Z,7.00
2019-04-05T17:20:49.193Z,7.00
2019-04-05T17:23:18.319Z,7.00
2019-04-05T17:25:47.791Z,7.00
2019-04-05T17:28:17.270Z,7.00
2019-04-05T17:30:46.417Z,7.00
2019-04-05T17:33:15.959Z,7.00
2019-04-05T17:35:45.588Z,7.00
2019-04-05T17:38:15.491Z,6.90
2019-04-05T17:40:45.342Z,6.90
2019-04-05T17:43:14.747Z,6.90
2019-04-05T17:45:44.259Z,6.90
2019-04-05T17:48:13.731Z,6.90
2019-04-05T17:50:43.227Z,6.90
2019-04-05T17:53:13.456Z,6.90
2019-04-05T17:55:43.164Z,6.90
2019-04-05T17:58:12.713Z,6.90
2019-04-05T18:00:42.179Z,6.90
2019-04-05T18:03:11.344Z,6.90
2019-04-05T18:05:41.124Z,6.90
2019-04-05T18:08:10.304Z,6.90
2019-04-05T18:10:39.456Z,6.90
2019-04-05T18:13:09.031Z,6.90
2019-04-05T18:15:46.689Z,6.90
2019-04-05T18:18:09.719Z,6.90
2019-04-05T18:20:38.946Z,6.90
2019-04-05T18:23:08.181Z,6.90
2019-04-05T18:25:37.402Z,6.90
2019-04-05T18:28:06.763Z,6.90
2019-04-05T18:30:36.283Z,6.90
2019-04-05T18:33:05.450Z,6.90
2019-04-05T18:35:34.967Z,6.90
2019-04-05T18:38:05.637Z,6.90
2019-04-05T18:40:40.274Z,6.90
2019-04-05T18:43:05.788Z,6.90
2019-04-05T18:45:34.944Z,6.90
2019-04-05T18:48:04.791Z,6.90
2019-04-05T18:50:34.534Z,6.90
2019-04-05T18:53:04.128Z,6.90
2019-04-05T18:55:33.443Z,6.80
2019-04-05T18:58:02.903Z,6.80
2019-04-05T19:00:32.115Z,6.80
2019-04-05T19:03:01.930Z,6.80
2019-04-05T19:05:31.140Z,6.80
2019-04-05T19:08:00.622Z,6.80
2019-04-05T19:10:37.015Z,6.80
2019-04-05T19:13:01.488Z,6.80
2019-04-05T19:15:31.083Z,6.80
2019-04-05T19:18:00.629Z,6.80
2019-04-05T19:20:30.168Z,6.80
2019-04-05T19:22:59.719Z,6.80
2019-04-05T19:25:29.263Z,6.80
2019-04-05T19:27:59.364Z,6.80
2019-04-05T19:50:38.761Z,6.70
2019-04-05T19:53:08.219Z,6.70
2019-04-05T19:55:37.700Z,6.70
2019-04-05T19:58:07.823Z,6.70
2019-04-05T20:00:37.641Z,6.70
2019-04-05T20:03:07.179Z,6.60
2019-04-05T20:05:36.347Z,6.60
2019-04-05T20:08:05.607Z,6.60
2019-04-05T20:10:34.750Z,6.60
2019-04-05T20:13:03.962Z,6.60
2019-04-05T20:15:33.195Z,6.60
2019-04-05T20:18:02.779Z,6.60
2019-04-05T20:20:32.438Z,6.60
2019-04-05T20:23:01.911Z,6.60
2019-04-05T20:25:31.105Z,6.60
2019-04-05T20:28:01.241Z,6.60
2019-04-05T20:30:32.252Z,6.60
2019-04-05T20:33:02.300Z,6.60
2019-04-05T20:35:31.513Z,6.60
2019-04-05T20:38:00.679Z,6.60
2019-04-05T20:40:30.427Z,6.60
2019-04-05T20:43:00.057Z,6.60
2019-04-05T20:45:29.909Z,6.60
2019-04-05T20:47:59.115Z,6.60
2019-04-05T20:50:28.280Z,6.60
2019-04-05T20:52:58.100Z,6.60
2019-04-05T20:55:27.630Z,6.60
2019-04-05T20:57:57.407Z,6.60
2019-04-05T21:00:26.652Z,6.60
2019-04-05T21:02:56.184Z,6.60
2019-04-05T21:05:25.867Z,6.60
2019-04-05T21:07:55.432Z,6.60
2019-04-05T21:10:24.980Z,6.60
2019-04-05T21:12:54.792Z,6.60
2019-04-05T21:15:24.025Z,6.60
2019-04-05T21:17:53.171Z,6.60
2019-04-05T21:20:23.249Z,6.60
2019-04-05T21:22:52.412Z,6.60
2019-04-05T21:25:21.899Z,6.60
2019-04-05T21:27:51.035Z,6.60
2019-04-05T21:30:20.599Z,6.60
2019-04-05T21:32:50.131Z,6.60
2019-04-05T21:35:19.360Z,6.50
2019-04-05T21:37:49.535Z,6.50
2019-04-05T21:40:19.252Z,6.50
2019-04-05T21:42:48.839Z,6.50
2019-04-05T21:45:18.277Z,6.40
2019-04-05T21:47:48.200Z,6.40
2019-04-05T21:50:17.996Z,6.40
2019-04-05T21:52:47.283Z,6.40
2019-04-05T21:55:16.703Z,6.40
2019-04-05T21:57:46.217Z,6.40
2019-04-05T22:00:22.819Z,6.30
2019-04-05T22:02:52.039Z,6.30
2019-04-05T22:05:21.204Z,6.30
2019-04-05T22:07:51.508Z,6.30
2019-04-05T22:10:20.978Z,6.20
2019-04-05T22:12:50.490Z,6.20
2019-04-05T22:15:19.651Z,6.20
2019-04-05T22:17:48.792Z,6.10
2019-04-05T22:20:18.332Z,6.00
2019-04-05T22:22:47.787Z,5.90
2019-04-05T22:25:16.965Z,5.90
2019-04-05T22:27:46.669Z,5.90
2019-04-05T22:30:16.251Z,5.80
2019-04-05T22:32:45.384Z,5.80
2019-04-05T22:35:14.544Z,5.70
2019-04-05T22:37:44.694Z,5.70
2019-04-05T22:40:13.844Z,5.60
2019-04-05T22:42:42.965Z,5.50
2019-04-05T22:45:12.416Z,5.50
2019-04-05T22:47:41.848Z,5.40
2019-04-05T22:50:11.959Z,5.40
2019-04-05T22:52:41.464Z,5.40
2019-04-05T22:55:11.998Z,5.30
2019-04-05T22:57:41.607Z,5.20
2019-04-05T23:00:11.337Z,5.20
2019-04-05T23:02:40.547Z,5.10
2019-04-05T23:05:10.465Z,5.10
2019-04-05T23:07:40.381Z,5.00
2019-04-05T23:10:10.092Z,4.90
2019-04-05T23:12:39.356Z,4.80
2019-04-05T23:15:09.542Z,4.80
2019-04-05T23:17:38.998Z,4.70
2019-04-05T23:20:08.682Z,4.70
2019-04-05T23:22:38.548Z,4.60
2019-04-05T23:25:08.778Z,4.60
2019-04-05T23:27:38.676Z,4.50
2019-04-05T23:30:08.729Z,4.50
2019-04-05T23:32:38.286Z,4.40
2019-04-05T23:35:08.038Z,4.30
2019-04-05T23:37:37.217Z,4.30
2019-04-05T23:40:07.318Z,4.20
2019-04-05T23:42:36.533Z,4.20
2019-04-05T23:45:05.891Z,4.10
2019-04-05T23:47:35.653Z,4.10
2019-04-05T23:50:05.263Z,4.00
2019-04-05T23:52:34.424Z,4.00
2019-04-05T23:55:04.281Z,3.90
2019-04-05T23:57:33.783Z,3.80
